SWR731C EDDH-LSZH
Flight info
| Callsign | SWR731C |
|---|---|
| Flight time | 1h 8m |
| Altitude | 35000 |
| Route | IDEKO7G IDEKO N850 ROBEG DCT SWALM/N0443F340 DCT OMOGI/N0445F350 T721 LAMGO/N0394F230 T721 RILAX |
| Aircraft | A321/M-SDE3FGHIRWY/LB1 |
Departure
| Time | 2026-05-05 09:02 |
|---|---|
| Airport | Hamburg Helmut Schmidt Airport (EDDH) |
Arrival
| Time | 2026-05-05 10:11 |
|---|---|
| Airport | Zürich Airport (LSZH) |
| Time | Latitude | Longitude | Altitude | Speed | Heading |
|---|---|---|---|---|---|
| 2026-05-05 08:16 | 53.63330 | 10.00347 | 49 ft | 0 kts | 86° |
| 2026-05-05 08:53 | 53.63330 | 10.00345 | 48 ft | 2 kts | 86° |
| 2026-05-05 08:53 | 53.63330 | 10.00303 | 48 ft | 4 kts | 96° |
| 2026-05-05 08:54 | 53.63336 | 10.00260 | 47 ft | 4 kts | 119° |
| 2026-05-05 08:54 | 53.63352 | 10.00232 | 48 ft | 3 kts | 171° |
| 2026-05-05 08:54 | 53.63356 | 10.00231 | 48 ft | 0 kts | 176° |
| 2026-05-05 08:57 | 53.63352 | 10.00231 | 48 ft | 3 kts | 176° |
| 2026-05-05 08:58 | 53.63311 | 10.00236 | 48 ft | 10 kts | 176° |
| 2026-05-05 08:58 | 53.63222 | 10.00246 | 48 ft | 13 kts | 176° |
| 2026-05-05 08:58 | 53.63131 | 10.00256 | 48 ft | 13 kts | 175° |
| 2026-05-05 08:58 | 53.63064 | 10.00255 | 48 ft | 8 kts | 199° |
| 2026-05-05 08:59 | 53.63020 | 10.00211 | 46 ft | 7 kts | 213° |
| 2026-05-05 08:59 | 53.62976 | 10.00155 | 48 ft | 8 kts | 227° |
| 2026-05-05 08:59 | 53.62947 | 10.00080 | 46 ft | 7 kts | 242° |
| 2026-05-05 08:59 | 53.62927 | 10.00016 | 47 ft | 6 kts | 242° |
| 2026-05-05 09:00 | 53.62910 | 9.99962 | 46 ft | 5 kts | 242° |
| 2026-05-05 09:00 | 53.62895 | 9.99910 | 48 ft | 5 kts | 244° |
| 2026-05-05 09:00 | 53.62868 | 9.99817 | 45 ft | 10 kts | 244° |
| 2026-05-05 09:00 | 53.62860 | 9.99759 | 45 ft | 3 kts | 292° |
| 2026-05-05 09:01 | 53.62876 | 9.99738 | 45 ft | 3 kts | 327° |
| 2026-05-05 09:01 | 53.62886 | 9.99729 | 45 ft | 0 kts | 333° |
| 2026-05-05 09:01 | 53.62893 | 9.99724 | 45 ft | 5 kts | 333° |
| 2026-05-05 09:01 | 53.63071 | 9.99572 | 46 ft | 65 kts | 333° |
| 2026-05-05 09:02 | 53.63675 | 9.99048 | 48 ft | 126 kts | 332° |
| 2026-05-05 09:02 | 53.64594 | 9.98258 | 88 ft | 167 kts | 334° |
| 2026-05-05 09:02 | 53.65638 | 9.97352 | 630 ft | 165 kts | 335° |
| 2026-05-05 09:02 | 53.66625 | 9.96455 | 1383 ft | 158 kts | 335° |
| 2026-05-05 09:03 | 53.67601 | 9.95557 | 1920 ft | 165 kts | 336° |
| 2026-05-05 09:03 | 53.68665 | 9.94622 | 2227 ft | 180 kts | 336° |
| 2026-05-05 09:03 | 53.69826 | 9.93640 | 2556 ft | 192 kts | 335° |
| 2026-05-05 09:03 | 53.71000 | 9.92446 | 2818 ft | 206 kts | 316° |
| 2026-05-05 09:04 | 53.71625 | 9.90282 | 3194 ft | 212 kts | 276° |
| 2026-05-05 09:04 | 53.71369 | 9.87828 | 3543 ft | 219 kts | 252° |
| 2026-05-05 09:04 | 53.70841 | 9.85280 | 3736 ft | 242 kts | 250° |
| 2026-05-05 09:04 | 53.70138 | 9.82568 | 4242 ft | 259 kts | 236° |
| 2026-05-05 09:05 | 53.68824 | 9.80472 | 5053 ft | 265 kts | 210° |
| 2026-05-05 09:05 | 53.67089 | 9.79376 | 5943 ft | 268 kts | 198° |
| 2026-05-05 09:05 | 53.65296 | 9.78451 | 6808 ft | 271 kts | 198° |
| 2026-05-05 09:05 | 53.63484 | 9.77533 | 7634 ft | 273 kts | 198° |
| 2026-05-05 09:06 | 53.61659 | 9.76609 | 8459 ft | 275 kts | 198° |
| 2026-05-05 09:06 | 53.59820 | 9.75671 | 9283 ft | 277 kts | 198° |
| 2026-05-05 09:06 | 53.57962 | 9.74718 | 10044 ft | 281 kts | 198° |
| 2026-05-05 09:06 | 53.56043 | 9.73730 | 10488 ft | 297 kts | 198° |
| 2026-05-05 09:07 | 53.54003 | 9.72679 | 10866 ft | 316 kts | 198° |
| 2026-05-05 09:07 | 53.51847 | 9.71566 | 11241 ft | 333 kts | 198° |
| 2026-05-05 09:07 | 53.49595 | 9.70409 | 11644 ft | 343 kts | 198° |
| 2026-05-05 09:07 | 53.47297 | 9.69234 | 12291 ft | 348 kts | 198° |
| 2026-05-05 09:08 | 53.44964 | 9.68048 | 12978 ft | 352 kts | 198° |
| 2026-05-05 09:08 | 53.42600 | 9.66847 | 13643 ft | 356 kts | 198° |
| 2026-05-05 09:08 | 53.40215 | 9.65635 | 14267 ft | 360 kts | 198° |
| 2026-05-05 09:08 | 53.37810 | 9.64412 | 14918 ft | 363 kts | 198° |
| 2026-05-05 09:09 | 53.35374 | 9.63172 | 15566 ft | 367 kts | 198° |
| 2026-05-05 09:09 | 53.32920 | 9.61924 | 16175 ft | 370 kts | 198° |
| 2026-05-05 09:09 | 53.30439 | 9.60663 | 16781 ft | 374 kts | 199° |
| 2026-05-05 09:09 | 53.27940 | 9.59400 | 17397 ft | 377 kts | 199° |
| 2026-05-05 09:10 | 53.25415 | 9.58126 | 17980 ft | 381 kts | 199° |
| 2026-05-05 09:10 | 53.22869 | 9.56840 | 18523 ft | 384 kts | 199° |
| 2026-05-05 09:10 | 53.20304 | 9.55546 | 19047 ft | 386 kts | 199° |
| 2026-05-05 09:10 | 53.17723 | 9.54244 | 19577 ft | 388 kts | 199° |
| 2026-05-05 09:11 | 53.15164 | 9.52953 | 20106 ft | 390 kts | 199° |
| 2026-05-05 09:11 | 53.12557 | 9.51639 | 20629 ft | 392 kts | 199° |
| 2026-05-05 09:11 | 53.09903 | 9.50306 | 21167 ft | 394 kts | 199° |
| 2026-05-05 09:11 | 53.07271 | 9.48987 | 21692 ft | 396 kts | 199° |
| 2026-05-05 09:12 | 53.04622 | 9.47663 | 22208 ft | 399 kts | 199° |
| 2026-05-05 09:12 | 53.01995 | 9.46352 | 22716 ft | 401 kts | 199° |
| 2026-05-05 09:12 | 52.99263 | 9.45095 | 23214 ft | 404 kts | 194° |
| 2026-05-05 09:12 | 52.96468 | 9.44395 | 23666 ft | 408 kts | 190° |
| 2026-05-05 09:13 | 52.93647 | 9.43786 | 24082 ft | 410 kts | 190° |
| 2026-05-05 09:13 | 52.90847 | 9.43194 | 24497 ft | 412 kts | 190° |
| 2026-05-05 09:13 | 52.87996 | 9.42638 | 24912 ft | 414 kts | 189° |
| 2026-05-05 09:13 | 52.85113 | 9.42220 | 25300 ft | 417 kts | 188° |
| 2026-05-05 09:14 | 52.82208 | 9.41904 | 25705 ft | 419 kts | 187° |
| 2026-05-05 09:14 | 52.79292 | 9.41634 | 26110 ft | 421 kts | 187° |
| 2026-05-05 09:14 | 52.76362 | 9.41378 | 26528 ft | 423 kts | 187° |
| 2026-05-05 09:14 | 52.73407 | 9.41113 | 26959 ft | 425 kts | 187° |
| 2026-05-05 09:15 | 52.70454 | 9.40828 | 27352 ft | 426 kts | 188° |
| 2026-05-05 09:15 | 52.67484 | 9.40523 | 27740 ft | 428 kts | 188° |
| 2026-05-05 09:15 | 52.64507 | 9.40208 | 28118 ft | 430 kts | 188° |
| 2026-05-05 09:15 | 52.61520 | 9.39883 | 28453 ft | 431 kts | 189° |
| 2026-05-05 09:16 | 52.58519 | 9.39556 | 28797 ft | 433 kts | 189° |
| 2026-05-05 09:16 | 52.55504 | 9.39230 | 29157 ft | 435 kts | 189° |
| 2026-05-05 09:16 | 52.52480 | 9.38905 | 29503 ft | 437 kts | 189° |
| 2026-05-05 09:16 | 52.49439 | 9.38578 | 29852 ft | 438 kts | 189° |
| 2026-05-05 09:17 | 52.46390 | 9.38255 | 30172 ft | 440 kts | 189° |
| 2026-05-05 09:17 | 52.43344 | 9.37939 | 30597 ft | 438 kts | 189° |
| 2026-05-05 09:17 | 52.40305 | 9.37624 | 31033 ft | 436 kts | 189° |
| 2026-05-05 09:17 | 52.37287 | 9.37311 | 31437 ft | 434 kts | 189° |
| 2026-05-05 09:18 | 52.34284 | 9.37000 | 31888 ft | 431 kts | 189° |
| 2026-05-05 09:18 | 52.31293 | 9.36693 | 32334 ft | 430 kts | 189° |
| 2026-05-05 09:18 | 52.28316 | 9.36382 | 32779 ft | 428 kts | 189° |
| 2026-05-05 09:18 | 52.25346 | 9.36068 | 33218 ft | 426 kts | 190° |
| 2026-05-05 09:19 | 52.22384 | 9.35758 | 33656 ft | 425 kts | 190° |
| 2026-05-05 09:19 | 52.19441 | 9.35451 | 34070 ft | 424 kts | 190° |
| 2026-05-05 09:19 | 52.16501 | 9.35145 | 34412 ft | 423 kts | 189° |
| 2026-05-05 09:19 | 52.13561 | 9.34840 | 34689 ft | 424 kts | 189° |
| 2026-05-05 09:20 | 52.10614 | 9.34533 | 34956 ft | 425 kts | 189° |
| 2026-05-05 09:20 | 52.07662 | 9.34225 | 35223 ft | 425 kts | 189° |
| 2026-05-05 09:20 | 52.04709 | 9.33919 | 35495 ft | 425 kts | 189° |
| 2026-05-05 09:20 | 52.01754 | 9.33615 | 35733 ft | 426 kts | 188° |
| 2026-05-05 09:21 | 51.98793 | 9.33311 | 35870 ft | 426 kts | 188° |
| 2026-05-05 09:21 | 51.92942 | 9.32706 | 35885 ft | 423 kts | 188° |
| 2026-05-05 09:22 | 51.87067 | 9.32105 | 35884 ft | 422 kts | 188° |
| 2026-05-05 09:22 | 51.81214 | 9.31509 | 35881 ft | 421 kts | 188° |
| 2026-05-05 09:23 | 51.75359 | 9.30909 | 35885 ft | 421 kts | 188° |
| 2026-05-05 09:23 | 51.69520 | 9.30127 | 35883 ft | 420 kts | 191° |
| 2026-05-05 09:24 | 51.63735 | 9.28937 | 35875 ft | 418 kts | 192° |
| 2026-05-05 09:24 | 51.58000 | 9.27699 | 35878 ft | 418 kts | 192° |
| 2026-05-05 09:25 | 51.52221 | 9.26539 | 35880 ft | 419 kts | 191° |
| 2026-05-05 09:25 | 51.46435 | 9.25418 | 35882 ft | 418 kts | 191° |
| 2026-05-05 09:26 | 51.40663 | 9.24308 | 35886 ft | 417 kts | 191° |
| 2026-05-05 09:26 | 51.34920 | 9.23207 | 35894 ft | 415 kts | 191° |
| 2026-05-05 09:27 | 51.30163 | 9.22283 | 35905 ft | 414 kts | 191° |
| 2026-05-05 09:27 | 51.24449 | 9.21176 | 35903 ft | 413 kts | 191° |
| 2026-05-05 09:28 | 51.18734 | 9.20082 | 35905 ft | 412 kts | 191° |
| 2026-05-05 09:28 | 51.13044 | 9.18988 | 35914 ft | 411 kts | 191° |
| 2026-05-05 09:29 | 51.07374 | 9.17896 | 35910 ft | 410 kts | 191° |
| 2026-05-05 09:29 | 51.01717 | 9.16811 | 35906 ft | 409 kts | 191° |
| 2026-05-05 09:30 | 50.96066 | 9.15731 | 35896 ft | 408 kts | 191° |
| 2026-05-05 09:30 | 50.90433 | 9.14660 | 35896 ft | 408 kts | 191° |
| 2026-05-05 09:31 | 50.84821 | 9.13603 | 35898 ft | 408 kts | 191° |
| 2026-05-05 09:31 | 50.79192 | 9.12532 | 35885 ft | 407 kts | 191° |
| 2026-05-05 09:32 | 50.73566 | 9.11460 | 35881 ft | 407 kts | 191° |
| 2026-05-05 09:32 | 50.67947 | 9.10409 | 35882 ft | 406 kts | 191° |
| 2026-05-05 09:33 | 50.62329 | 9.09352 | 35876 ft | 407 kts | 191° |
| 2026-05-05 09:33 | 50.56711 | 9.08288 | 35877 ft | 406 kts | 191° |
| 2026-05-05 09:34 | 50.51097 | 9.07242 | 35860 ft | 406 kts | 190° |
| 2026-05-05 09:34 | 50.45488 | 9.06199 | 35863 ft | 406 kts | 190° |
| 2026-05-05 09:35 | 50.39872 | 9.05155 | 35867 ft | 406 kts | 190° |
| 2026-05-05 09:35 | 50.31448 | 9.03604 | 35876 ft | 406 kts | 190° |
| 2026-05-05 09:36 | 50.25870 | 9.02568 | 35869 ft | 406 kts | 190° |
| 2026-05-05 09:36 | 50.20257 | 9.01526 | 35875 ft | 406 kts | 190° |
| 2026-05-05 09:37 | 50.14652 | 9.00487 | 35872 ft | 405 kts | 190° |
| 2026-05-05 09:37 | 50.09047 | 8.99464 | 35871 ft | 405 kts | 190° |
| 2026-05-05 09:38 | 50.03442 | 8.98437 | 35865 ft | 405 kts | 190° |
| 2026-05-05 09:38 | 49.97845 | 8.97400 | 35870 ft | 405 kts | 189° |
| 2026-05-05 09:39 | 49.92246 | 8.96386 | 35872 ft | 405 kts | 189° |
| 2026-05-05 09:39 | 49.86650 | 8.95373 | 35877 ft | 405 kts | 189° |
| 2026-05-05 09:40 | 49.81055 | 8.94372 | 35884 ft | 405 kts | 189° |
| 2026-05-05 09:40 | 49.75463 | 8.93360 | 35886 ft | 404 kts | 189° |
| 2026-05-05 09:41 | 49.69909 | 8.92351 | 35883 ft | 404 kts | 189° |
| 2026-05-05 09:41 | 49.64315 | 8.91343 | 35891 ft | 404 kts | 189° |
| 2026-05-05 09:42 | 49.58721 | 8.90334 | 35885 ft | 405 kts | 189° |
| 2026-05-05 09:42 | 49.53129 | 8.89329 | 35889 ft | 405 kts | 189° |
| 2026-05-05 09:43 | 49.47530 | 8.88331 | 35888 ft | 405 kts | 189° |
| 2026-05-05 09:43 | 49.41936 | 8.87330 | 35889 ft | 405 kts | 189° |
| 2026-05-05 09:44 | 49.36372 | 8.86341 | 35890 ft | 404 kts | 189° |
| 2026-05-05 09:44 | 49.30781 | 8.85341 | 35889 ft | 404 kts | 189° |
| 2026-05-05 09:45 | 49.25204 | 8.84353 | 35886 ft | 403 kts | 189° |
| 2026-05-05 09:45 | 49.19634 | 8.83360 | 35582 ft | 402 kts | 189° |
| 2026-05-05 09:46 | 49.16861 | 8.82866 | 34986 ft | 400 kts | 188° |
| 2026-05-05 09:46 | 49.14100 | 8.82374 | 34452 ft | 398 kts | 188° |
| 2026-05-05 09:46 | 49.11358 | 8.81890 | 33936 ft | 396 kts | 188° |
| 2026-05-05 09:46 | 49.08624 | 8.81412 | 33299 ft | 394 kts | 188° |
| 2026-05-05 09:47 | 49.05895 | 8.80934 | 32498 ft | 397 kts | 188° |
| 2026-05-05 09:47 | 49.03138 | 8.80451 | 31625 ft | 401 kts | 188° |
| 2026-05-05 09:47 | 49.00350 | 8.79963 | 30786 ft | 405 kts | 188° |
| 2026-05-05 09:47 | 48.97549 | 8.79475 | 30135 ft | 404 kts | 187° |
| 2026-05-05 09:48 | 48.94766 | 8.78993 | 29500 ft | 402 kts | 187° |
| 2026-05-05 09:48 | 48.91995 | 8.78513 | 28844 ft | 399 kts | 187° |
| 2026-05-05 09:48 | 48.89245 | 8.78033 | 28205 ft | 396 kts | 187° |
| 2026-05-05 09:48 | 48.86519 | 8.77488 | 27575 ft | 394 kts | 189° |
| 2026-05-05 09:49 | 48.83817 | 8.76815 | 26956 ft | 391 kts | 190° |
| 2026-05-05 09:49 | 48.81142 | 8.76068 | 26349 ft | 389 kts | 191° |
| 2026-05-05 09:49 | 48.78491 | 8.75300 | 25758 ft | 387 kts | 191° |
| 2026-05-05 09:49 | 48.75849 | 8.74537 | 25169 ft | 386 kts | 191° |
| 2026-05-05 09:50 | 48.73216 | 8.73795 | 24608 ft | 384 kts | 191° |
| 2026-05-05 09:50 | 48.70592 | 8.73077 | 24049 ft | 381 kts | 190° |
| 2026-05-05 09:50 | 48.67985 | 8.72379 | 23494 ft | 380 kts | 190° |
| 2026-05-05 09:50 | 48.65388 | 8.71692 | 22848 ft | 378 kts | 190° |
| 2026-05-05 09:51 | 48.62842 | 8.71024 | 22263 ft | 375 kts | 190° |
| 2026-05-05 09:51 | 48.60251 | 8.70343 | 21697 ft | 371 kts | 190° |
| 2026-05-05 09:51 | 48.57719 | 8.69675 | 21139 ft | 368 kts | 190° |
| 2026-05-05 09:51 | 48.55235 | 8.69018 | 20614 ft | 365 kts | 190° |
| 2026-05-05 09:52 | 48.52737 | 8.68357 | 20099 ft | 362 kts | 190° |
| 2026-05-05 09:52 | 48.50264 | 8.67701 | 19586 ft | 360 kts | 190° |
| 2026-05-05 09:52 | 48.47806 | 8.67048 | 19085 ft | 357 kts | 190° |
| 2026-05-05 09:52 | 48.45369 | 8.66399 | 18604 ft | 355 kts | 190° |
| 2026-05-05 09:53 | 48.42944 | 8.65756 | 18118 ft | 352 kts | 190° |
| 2026-05-05 09:53 | 48.40538 | 8.65120 | 17601 ft | 350 kts | 190° |
| 2026-05-05 09:53 | 48.38145 | 8.64488 | 17087 ft | 347 kts | 190° |
| 2026-05-05 09:53 | 48.35782 | 8.63830 | 16586 ft | 345 kts | 191° |
| 2026-05-05 09:54 | 48.33439 | 8.63128 | 16105 ft | 342 kts | 192° |
| 2026-05-05 09:54 | 48.31117 | 8.62409 | 15653 ft | 339 kts | 192° |
| 2026-05-05 09:54 | 48.28814 | 8.61689 | 15196 ft | 336 kts | 192° |
| 2026-05-05 09:54 | 48.26532 | 8.60976 | 14736 ft | 334 kts | 192° |
| 2026-05-05 09:55 | 48.24264 | 8.60279 | 14276 ft | 332 kts | 192° |
| 2026-05-05 09:55 | 48.22035 | 8.59604 | 13837 ft | 330 kts | 191° |
| 2026-05-05 09:55 | 48.19791 | 8.58929 | 13358 ft | 328 kts | 191° |
| 2026-05-05 09:55 | 48.17555 | 8.58260 | 12842 ft | 326 kts | 191° |
| 2026-05-05 09:56 | 48.15338 | 8.57596 | 12335 ft | 325 kts | 191° |
| 2026-05-05 09:56 | 48.13123 | 8.56940 | 11847 ft | 324 kts | 191° |
| 2026-05-05 09:56 | 48.10915 | 8.56290 | 11387 ft | 321 kts | 191° |
| 2026-05-05 09:56 | 48.08735 | 8.55648 | 10973 ft | 318 kts | 191° |
| 2026-05-05 09:57 | 48.06572 | 8.55009 | 10535 ft | 316 kts | 191° |
| 2026-05-05 09:57 | 48.04448 | 8.54377 | 10091 ft | 314 kts | 191° |
| 2026-05-05 09:57 | 48.02309 | 8.53741 | 9883 ft | 311 kts | 191° |
| 2026-05-05 09:57 | 48.00218 | 8.53120 | 9874 ft | 294 kts | 190° |
| 2026-05-05 09:58 | 47.98288 | 8.52548 | 9800 ft | 281 kts | 190° |
| 2026-05-05 09:58 | 47.96397 | 8.51986 | 9513 ft | 275 kts | 190° |
| 2026-05-05 09:58 | 47.94526 | 8.51432 | 9110 ft | 273 kts | 191° |
| 2026-05-05 09:58 | 47.92671 | 8.50773 | 8692 ft | 273 kts | 194° |
| 2026-05-05 09:59 | 47.90842 | 8.50005 | 8281 ft | 273 kts | 195° |
| 2026-05-05 09:59 | 47.89032 | 8.49201 | 7902 ft | 271 kts | 195° |
| 2026-05-05 09:59 | 47.87233 | 8.48390 | 7505 ft | 270 kts | 195° |
| 2026-05-05 09:59 | 47.85439 | 8.47585 | 7091 ft | 269 kts | 195° |
| 2026-05-05 10:00 | 47.83642 | 8.46792 | 6696 ft | 269 kts | 195° |
| 2026-05-05 10:00 | 47.81845 | 8.46008 | 6308 ft | 269 kts | 195° |
| 2026-05-05 10:00 | 47.80046 | 8.45234 | 5908 ft | 269 kts | 195° |
| 2026-05-05 10:00 | 47.78282 | 8.44437 | 5698 ft | 260 kts | 202° |
| 2026-05-05 10:01 | 47.76882 | 8.42864 | 5563 ft | 251 kts | 232° |
| 2026-05-05 10:01 | 47.76237 | 8.40537 | 5460 ft | 243 kts | 264° |
| 2026-05-05 10:01 | 47.76492 | 8.38085 | 5360 ft | 243 kts | 295° |
| 2026-05-05 10:01 | 47.77333 | 8.35901 | 5265 ft | 244 kts | 302° |
| 2026-05-05 10:02 | 47.78271 | 8.33799 | 5162 ft | 244 kts | 303° |
| 2026-05-05 10:02 | 47.79217 | 8.31702 | 5054 ft | 244 kts | 303° |
| 2026-05-05 10:02 | 47.80138 | 8.29590 | 4978 ft | 242 kts | 296° |
| 2026-05-05 10:02 | 47.80482 | 8.27228 | 4999 ft | 228 kts | 263° |
| 2026-05-05 10:03 | 47.79940 | 8.25093 | 4987 ft | 219 kts | 229° |
| 2026-05-05 10:03 | 47.78730 | 8.23844 | 4986 ft | 212 kts | 194° |
| 2026-05-05 10:03 | 47.77279 | 8.23832 | 4986 ft | 210 kts | 164° |
| 2026-05-05 10:03 | 47.75939 | 8.24680 | 4986 ft | 210 kts | 150° |
| 2026-05-05 10:04 | 47.74668 | 8.25773 | 4990 ft | 211 kts | 149° |
| 2026-05-05 10:04 | 47.73393 | 8.26825 | 4991 ft | 209 kts | 153° |
| 2026-05-05 10:04 | 47.72077 | 8.27750 | 4993 ft | 209 kts | 154° |
| 2026-05-05 10:04 | 47.70757 | 8.28658 | 4989 ft | 210 kts | 154° |
| 2026-05-05 10:05 | 47.69431 | 8.29568 | 4984 ft | 209 kts | 155° |
| 2026-05-05 10:05 | 47.68105 | 8.30481 | 4991 ft | 210 kts | 154° |
| 2026-05-05 10:05 | 47.66777 | 8.31392 | 4870 ft | 211 kts | 155° |
| 2026-05-05 10:05 | 47.65442 | 8.32308 | 4748 ft | 211 kts | 154° |
| 2026-05-05 10:06 | 47.64144 | 8.33312 | 4633 ft | 211 kts | 148° |
| 2026-05-05 10:06 | 47.62916 | 8.34449 | 4501 ft | 210 kts | 147° |
| 2026-05-05 10:06 | 47.61690 | 8.35621 | 4377 ft | 209 kts | 146° |
| 2026-05-05 10:06 | 47.60508 | 8.36868 | 4240 ft | 209 kts | 140° |
| 2026-05-05 10:07 | 47.59421 | 8.38254 | 4112 ft | 203 kts | 137° |
| 2026-05-05 10:07 | 47.58413 | 8.39623 | 4043 ft | 189 kts | 136° |
| 2026-05-05 10:07 | 47.57464 | 8.40924 | 3893 ft | 183 kts | 136° |
| 2026-05-05 10:07 | 47.56537 | 8.42197 | 3678 ft | 181 kts | 136° |
| 2026-05-05 10:08 | 47.55618 | 8.43458 | 3448 ft | 178 kts | 136° |
| 2026-05-05 10:08 | 47.54731 | 8.44675 | 3258 ft | 170 kts | 136° |
| 2026-05-05 10:08 | 47.53874 | 8.45851 | 3015 ft | 166 kts | 137° |
| 2026-05-05 10:08 | 47.53031 | 8.47005 | 2799 ft | 164 kts | 137° |
| 2026-05-05 10:09 | 47.52209 | 8.48131 | 2581 ft | 155 kts | 138° |
| 2026-05-05 10:09 | 47.51431 | 8.49201 | 2346 ft | 150 kts | 137° |
| 2026-05-05 10:09 | 47.50670 | 8.50248 | 2144 ft | 149 kts | 139° |
| 2026-05-05 10:09 | 47.49918 | 8.51296 | 1944 ft | 147 kts | 138° |
| 2026-05-05 10:10 | 47.49170 | 8.52324 | 1736 ft | 145 kts | 139° |
| 2026-05-05 10:10 | 47.48424 | 8.53322 | 1520 ft | 144 kts | 138° |
| 2026-05-05 10:10 | 47.47936 | 8.53980 | 1416 ft | 143 kts | 138° |
| 2026-05-05 10:10 | 47.47283 | 8.54873 | 1409 ft | 104 kts | 138° |
| 2026-05-05 10:11 | 47.46882 | 8.55420 | 1409 ft | 56 kts | 137° |
| 2026-05-05 10:11 | 47.46616 | 8.55782 | 1409 ft | 31 kts | 137° |
| 2026-05-05 10:11 | 47.46459 | 8.55925 | 1407 ft | 22 kts | 160° |
| 2026-05-05 10:11 | 47.46317 | 8.55978 | 1405 ft | 20 kts | 167° |
| 2026-05-05 10:12 | 47.46214 | 8.56006 | 1403 ft | 14 kts | 177° |
| 2026-05-05 10:12 | 47.46122 | 8.55995 | 1398 ft | 13 kts | 185° |
| 2026-05-05 10:12 | 47.46042 | 8.55983 | 1397 ft | 11 kts | 186° |
| 2026-05-05 10:12 | 47.45974 | 8.55971 | 1397 ft | 9 kts | 192° |
| 2026-05-05 10:13 | 47.45900 | 8.55934 | 1401 ft | 10 kts | 199° |
| 2026-05-05 10:13 | 47.45866 | 8.55917 | 1405 ft | 3 kts | 199° |
| 2026-05-05 10:13 | 47.45853 | 8.55910 | 1400 ft | 1 kts | 199° |
| 2026-05-05 10:13 | 47.45837 | 8.55902 | 1399 ft | 2 kts | 199° |
| 2026-05-05 10:14 | 47.45834 | 8.55900 | 1398 ft | 0 kts | 200° |
| 2026-05-05 10:15 | 47.45819 | 8.55893 | 1406 ft | 5 kts | 199° |
| 2026-05-05 10:15 | 47.45764 | 8.55877 | 1405 ft | 11 kts | 186° |
| 2026-05-05 10:15 | 47.45673 | 8.55863 | 1399 ft | 15 kts | 185° |
| 2026-05-05 10:16 | 47.45567 | 8.55846 | 1397 ft | 13 kts | 186° |
| 2026-05-05 10:16 | 47.45510 | 8.55822 | 1406 ft | 5 kts | 234° |
| 2026-05-05 10:16 | 47.45507 | 8.55777 | 1402 ft | 7 kts | 274° |
| 2026-05-05 10:16 | 47.45511 | 8.55709 | 1400 ft | 3 kts | 268° |
| 2026-05-05 10:17 | 47.45501 | 8.55703 | 1406 ft | 2 kts | 201° |
| 2026-05-05 10:17 | 47.45486 | 8.55701 | 1400 ft | 2 kts | 186° |
| 2026-05-05 10:17 | 47.45470 | 8.55698 | 1401 ft | 3 kts | 185° |
| 2026-05-05 10:17 | 47.45448 | 8.55695 | 1397 ft | 3 kts | 186° |
| 2026-05-05 10:18 | 47.45435 | 8.55693 | 1397 ft | 0 kts | 186° |